createdAt,value
2023-03-05T00:00:03.918Z,0.00
2023-03-05T00:01:03.905Z,0.00
2023-03-05T00:02:05.946Z,0.00
2023-03-05T00:03:03.894Z,0.00
2023-03-05T00:04:03.899Z,0.00
2023-03-05T00:05:03.858Z,0.00
2023-03-05T00:06:03.849Z,0.00
2023-03-05T00:07:03.851Z,0.00
2023-03-05T00:08:03.874Z,0.00
2023-03-05T00:09:03.811Z,0.00
2023-03-05T00:10:03.806Z,0.00
2023-03-05T00:11:03.790Z,0.00
2023-03-05T00:12:03.779Z,0.00
2023-03-05T00:13:03.796Z,0.00
2023-03-05T00:14:03.778Z,0.00
2023-03-05T00:15:03.744Z,0.00
2023-03-05T00:16:03.783Z,0.00
2023-03-05T00:17:03.718Z,0.00
2023-03-05T00:18:03.726Z,0.00
2023-03-05T00:19:03.718Z,0.00
2023-03-05T00:20:03.751Z,0.00
2023-03-05T00:21:11.260Z,0.00
2023-03-05T00:22:03.680Z,0.00
2023-03-05T00:23:03.668Z,0.00
2023-03-05T00:24:03.696Z,0.00
2023-03-05T00:25:03.633Z,0.00
2023-03-05T00:26:03.635Z,0.00
2023-03-05T00:27:03.631Z,0.00
2023-03-05T00:28:03.628Z,0.00
2023-03-05T00:29:03.589Z,0.00
2023-03-05T00:30:03.602Z,0.00
2023-03-05T00:31:03.674Z,0.00
2023-03-05T00:32:03.628Z,0.00
2023-03-05T00:33:03.574Z,0.00
2023-03-05T00:34:03.564Z,0.00
2023-03-05T00:35:03.541Z,0.00
2023-03-05T00:36:03.564Z,0.00
2023-03-05T00:37:03.521Z,0.00
2023-03-05T00:38:03.521Z,0.00
2023-03-05T00:39:03.510Z,0.00
2023-03-05T00:40:03.579Z,0.00
2023-03-05T00:41:03.471Z,0.00
2023-03-05T00:42:03.454Z,0.00
2023-03-05T00:43:03.443Z,0.00
2023-03-05T00:44:03.431Z,0.00
2023-03-05T00:45:03.439Z,0.00
2023-03-05T00:46:03.503Z,0.00
2023-03-05T00:47:03.401Z,0.00
2023-03-05T00:48:03.383Z,0.00
2023-03-05T00:49:03.407Z,0.00
2023-03-05T00:50:03.361Z,0.00
2023-03-05T00:51:03.356Z,0.00
2023-03-05T00:52:03.342Z,0.00
2023-03-05T00:53:03.344Z,0.00
2023-03-05T00:54:03.348Z,0.00
2023-03-05T00:55:03.322Z,0.00
2023-03-05T00:56:03.319Z,0.00
2023-03-05T00:57:03.303Z,0.00
2023-03-05T00:58:03.281Z,0.00
2023-03-05T00:59:03.284Z,0.00
2023-03-05T01:00:03.261Z,0.00
2023-03-05T01:01:03.253Z,0.00
2023-03-05T01:02:03.354Z,0.00
2023-03-05T01:03:03.222Z,0.00
2023-03-05T01:04:03.224Z,0.00
2023-03-05T01:05:03.847Z,0.00
2023-03-05T01:06:03.200Z,0.00
2023-03-05T01:07:03.762Z,0.00
2023-03-05T01:08:03.162Z,0.00
2023-03-05T01:09:03.165Z,0.00
2023-03-05T01:10:03.135Z,0.00
2023-03-05T01:11:03.129Z,0.00
2023-03-05T01:12:03.130Z,0.00
2023-03-05T01:13:03.098Z,0.00
2023-03-05T01:14:03.102Z,0.00
2023-03-05T01:15:03.102Z,0.00
2023-03-05T01:16:03.133Z,0.00
2023-03-05T01:17:03.158Z,0.00
2023-03-05T01:18:03.040Z,0.00
2023-03-05T01:19:03.277Z,0.00
2023-03-05T01:20:03.034Z,0.00
2023-03-05T01:21:03.008Z,0.00
2023-03-05T01:22:02.996Z,0.00
2023-03-05T01:23:03.010Z,0.00
2023-03-05T01:24:02.989Z,0.00
2023-03-05T01:25:02.964Z,0.00
2023-03-05T01:26:02.945Z,0.00
2023-03-05T01:27:02.939Z,0.00
2023-03-05T01:28:02.944Z,0.00
2023-03-05T01:29:02.933Z,0.00
2023-03-05T01:30:02.905Z,0.00
2023-03-05T01:31:02.897Z,0.00
2023-03-05T01:32:02.971Z,0.00
2023-03-05T01:33:02.888Z,0.00
2023-03-05T01:34:02.876Z,0.00
2023-03-05T01:35:02.871Z,0.00
2023-03-05T01:36:02.838Z,0.00
2023-03-05T01:37:02.866Z,0.00
2023-03-05T01:38:02.815Z,0.00
2023-03-05T01:39:02.835Z,0.00
2023-03-05T01:40:02.799Z,0.00
2023-03-05T01:41:02.789Z,0.00
2023-03-05T01:42:02.776Z,0.00
2023-03-05T01:43:02.800Z,0.00
2023-03-05T01:44:02.782Z,0.00
2023-03-05T01:45:02.860Z,0.00
2023-03-05T01:46:02.778Z,0.00
2023-03-05T01:47:02.722Z,0.00
2023-03-05T01:48:02.710Z,0.00
2023-03-05T01:49:02.722Z,0.00
2023-03-05T01:50:02.691Z,0.00
2023-03-05T01:51:02.683Z,0.00
2023-03-05T01:52:02.672Z,0.00
2023-03-05T01:53:02.655Z,0.00
2023-03-05T01:54:02.658Z,0.00
2023-03-05T01:55:02.640Z,0.00
2023-03-05T01:56:02.643Z,0.00
2023-03-05T01:57:02.617Z,0.00
2023-03-05T01:58:02.605Z,0.00
2023-03-05T01:59:02.593Z,0.00
2023-03-05T02:00:02.646Z,0.00
2023-03-05T02:01:02.618Z,0.00
2023-03-05T02:02:02.553Z,0.00
2023-03-05T02:03:02.545Z,0.00
2023-03-05T02:04:02.570Z,0.00
2023-03-05T02:05:02.544Z,0.00
2023-03-05T02:06:02.529Z,0.00
2023-03-05T02:07:02.502Z,0.00
2023-03-05T02:08:02.491Z,0.00
2023-03-05T02:09:03.248Z,0.00
2023-03-05T02:10:02.484Z,0.00
2023-03-05T02:11:02.457Z,0.00
2023-03-05T02:12:02.450Z,0.00
2023-03-05T02:13:02.444Z,0.00
2023-03-05T02:14:02.441Z,0.00
2023-03-05T02:15:02.432Z,0.00
2023-03-05T02:16:02.439Z,0.00
2023-03-05T02:17:02.399Z,0.00
2023-03-05T02:18:02.390Z,0.00
2023-03-05T02:19:02.375Z,0.00
2023-03-05T02:20:02.376Z,0.00
2023-03-05T02:21:02.366Z,0.00
2023-03-05T02:22:02.385Z,0.00
2023-03-05T02:23:02.342Z,0.00
2023-03-05T02:24:02.319Z,0.00
2023-03-05T02:25:02.327Z,0.00
2023-03-05T02:26:02.302Z,0.00
2023-03-05T02:27:02.286Z,0.00
2023-03-05T02:28:02.279Z,0.00
2023-03-05T02:29:02.267Z,0.00
2023-03-05T02:30:02.254Z,0.00
2023-03-05T02:31:02.267Z,0.00
2023-03-05T02:32:02.423Z,0.00
2023-03-05T02:33:02.219Z,0.00
2023-03-05T02:34:02.229Z,0.00
2023-03-05T02:35:02.328Z,0.00
2023-03-05T02:36:02.196Z,0.00
2023-03-05T02:37:02.182Z,0.00
2023-03-05T02:38:02.189Z,0.00
2023-03-05T02:39:02.165Z,0.00
2023-03-05T02:40:02.172Z,0.00
2023-03-05T02:41:02.154Z,0.00
2023-03-05T02:42:02.137Z,0.00
2023-03-05T02:43:02.115Z,0.00
2023-03-05T02:44:02.124Z,0.00
2023-03-05T02:45:02.128Z,0.00
2023-03-05T02:46:02.121Z,0.00
2023-03-05T02:47:02.073Z,0.00
2023-03-05T02:48:02.085Z,0.00
2023-03-05T02:49:02.203Z,0.00
2023-03-05T02:50:02.040Z,0.00
2023-03-05T02:51:02.051Z,0.00
2023-03-05T02:52:02.022Z,0.00
2023-03-05T02:53:02.017Z,0.00
2023-03-05T02:54:02.002Z,0.00
2023-03-05T02:55:02.036Z,0.00
2023-03-05T02:56:01.987Z,0.00
2023-03-05T02:57:01.973Z,0.00
2023-03-05T02:58:01.957Z,0.00
2023-03-05T02:59:01.947Z,0.00
2023-03-05T03:00:02.121Z,0.00
2023-03-05T03:01:02.823Z,0.00
2023-03-05T03:02:01.910Z,0.00
2023-03-05T03:03:01.927Z,0.00
2023-03-05T03:04:01.934Z,0.00
2023-03-05T03:05:01.879Z,0.00
2023-03-05T03:06:01.879Z,0.00
2023-03-05T03:07:01.861Z,0.00
2023-03-05T03:08:01.844Z,0.00
2023-03-05T03:09:01.873Z,0.00
2023-03-05T03:10:01.830Z,0.00
2023-03-05T03:11:01.812Z,0.00
2023-03-05T03:12:01.819Z,0.00
2023-03-05T03:13:01.796Z,0.00
2023-03-05T03:14:01.791Z,0.00
2023-03-05T03:15:01.781Z,0.00
2023-03-05T03:16:01.762Z,0.00
2023-03-05T03:17:01.944Z,0.00
2023-03-05T03:18:01.735Z,0.00
2023-03-05T03:19:01.724Z,0.00
2023-03-05T03:20:01.736Z,0.00
2023-03-05T03:21:01.711Z,0.00
2023-03-05T03:22:01.692Z,0.00
2023-03-05T03:23:01.939Z,0.00
2023-03-05T03:24:01.673Z,0.00
2023-03-05T03:25:01.663Z,0.00
2023-03-05T03:26:01.682Z,0.00
2023-03-05T03:27:01.639Z,0.00
2023-03-05T03:28:01.638Z,0.00
2023-03-05T03:29:01.625Z,0.00
2023-03-05T03:30:01.609Z,0.00
2023-03-05T03:31:01.698Z,0.00
2023-03-05T03:32:01.625Z,0.00
2023-03-05T03:33:01.579Z,0.00
2023-03-05T03:34:01.567Z,0.00
2023-03-05T03:35:01.590Z,0.00
2023-03-05T03:36:01.579Z,0.00
2023-03-05T03:37:01.534Z,0.00
2023-03-05T03:38:01.519Z,0.00
2023-03-05T03:39:01.511Z,0.00
2023-03-05T03:40:01.508Z,0.00
2023-03-05T03:41:01.504Z,0.00
2023-03-05T03:42:01.578Z,0.00
2023-03-05T03:43:01.470Z,0.00
2023-03-05T03:44:01.456Z,0.00
2023-03-05T03:45:01.464Z,0.00
2023-03-05T03:46:01.457Z,0.00
2023-03-05T03:47:01.438Z,0.00
2023-03-05T03:48:01.408Z,0.00
2023-03-05T03:49:01.820Z,0.00
2023-03-05T03:50:01.400Z,0.00
2023-03-05T03:51:01.382Z,0.00
2023-03-05T03:52:01.389Z,0.00
2023-03-05T03:53:01.374Z,0.00
2023-03-05T03:54:01.374Z,0.00
2023-03-05T03:55:01.438Z,0.00
2023-03-05T03:56:01.347Z,0.00
2023-03-05T03:57:01.315Z,0.00
2023-03-05T03:58:01.320Z,0.00
2023-03-05T03:59:01.292Z,0.00
2023-03-05T04:00:01.282Z,0.00
2023-03-05T04:01:01.278Z,0.00
2023-03-05T04:02:01.264Z,0.00
2023-03-05T04:03:01.386Z,0.00
2023-03-05T04:04:01.296Z,0.00
2023-03-05T04:05:01.230Z,0.00
2023-03-05T04:06:01.263Z,0.00
2023-03-05T04:07:01.210Z,0.00
2023-03-05T04:08:01.229Z,0.00
2023-03-05T04:09:01.191Z,0.00
2023-03-05T04:10:01.179Z,0.00
2023-03-05T04:11:01.199Z,0.00
2023-03-05T04:12:01.151Z,0.00
2023-03-05T04:13:01.145Z,0.00
2023-03-05T04:14:01.124Z,0.00
2023-03-05T04:15:01.296Z,0.00
2023-03-05T04:16:01.147Z,0.00
2023-03-05T04:17:01.110Z,0.00
2023-03-05T04:18:01.106Z,0.00
2023-03-05T04:19:01.080Z,0.00
2023-03-05T04:20:01.088Z,0.00
2023-03-05T04:21:01.062Z,0.00
2023-03-05T04:22:01.043Z,0.00
2023-03-05T04:23:01.038Z,0.00
2023-03-05T04:24:01.037Z,0.00
2023-03-05T04:25:01.013Z,0.00
2023-03-05T04:26:01.016Z,0.00
2023-03-05T04:27:00.985Z,0.00
2023-03-05T04:28:00.976Z,0.00
2023-03-05T04:29:00.961Z,0.00
2023-03-05T04:30:00.970Z,0.00
2023-03-05T04:31:00.973Z,0.00
2023-03-05T04:32:00.958Z,0.00
2023-03-05T04:33:00.915Z,0.00
2023-03-05T04:34:00.936Z,0.00
2023-03-05T04:35:00.896Z,0.00
2023-03-05T04:36:00.885Z,0.00
2023-03-05T04:37:00.867Z,0.00
2023-03-05T04:38:00.858Z,0.00
2023-03-05T04:39:00.848Z,0.00
2023-03-05T04:40:00.872Z,0.00
2023-03-05T04:41:00.825Z,0.00
2023-03-05T04:42:00.818Z,0.00
2023-03-05T04:43:00.834Z,0.00
2023-03-05T04:44:01.311Z,0.00
2023-03-05T04:45:00.787Z,0.00
2023-03-05T04:46:00.768Z,0.00
2023-03-05T04:47:00.764Z,0.00
2023-03-05T04:48:00.747Z,0.00
2023-03-05T04:49:00.761Z,0.00
2023-03-05T04:50:00.743Z,0.00
2023-03-05T04:51:00.717Z,0.00
2023-03-05T04:52:00.700Z,0.00
2023-03-05T04:53:00.693Z,0.00
2023-03-05T04:54:00.693Z,0.00
2023-03-05T04:55:00.683Z,0.00
2023-03-05T04:56:00.678Z,0.00
2023-03-05T04:57:00.650Z,0.00
2023-03-05T04:58:00.638Z,0.00
2023-03-05T04:59:00.636Z,0.00
2023-03-05T05:00:00.620Z,0.00
2023-03-05T05:01:00.606Z,0.00
2023-03-05T05:02:00.677Z,0.00
2023-03-05T05:03:00.666Z,0.00
2023-03-05T05:04:00.580Z,0.00
2023-03-05T05:05:00.574Z,0.00
2023-03-05T05:06:00.557Z,0.00
2023-03-05T05:07:00.558Z,0.00
2023-03-05T05:08:00.615Z,0.00
2023-03-05T05:09:00.516Z,0.00
2023-03-05T05:10:00.518Z,0.00
2023-03-05T05:11:00.504Z,0.00
2023-03-05T05:12:00.582Z,0.00
2023-03-05T05:13:00.476Z,0.00
2023-03-05T05:14:00.479Z,0.00
2023-03-05T05:15:00.505Z,0.00
2023-03-05T05:16:00.565Z,0.00
2023-03-05T05:17:00.438Z,0.00
2023-03-05T05:18:00.448Z,0.00
2023-03-05T05:19:00.486Z,0.00
2023-03-05T05:20:00.404Z,0.00
2023-03-05T05:21:00.393Z,0.00
2023-03-05T05:22:00.400Z,0.00
2023-03-05T05:23:00.376Z,0.00
2023-03-05T05:24:00.359Z,0.00
2023-03-05T05:25:00.343Z,0.00
2023-03-05T05:26:00.351Z,0.00
2023-03-05T05:27:01.290Z,0.00
2023-03-05T05:28:00.328Z,0.00
2023-03-05T05:29:00.302Z,0.00
2023-03-05T05:30:00.298Z,0.00
2023-03-05T05:31:00.281Z,0.00
2023-03-05T05:32:00.392Z,0.00
2023-03-05T05:33:00.258Z,0.00
2023-03-05T05:34:00.267Z,0.00
2023-03-05T05:35:00.230Z,0.00
2023-03-05T05:36:00.327Z,0.00
2023-03-05T05:37:00.228Z,0.00
2023-03-05T05:38:00.204Z,0.00
2023-03-05T05:39:00.284Z,0.00
2023-03-05T05:40:00.185Z,5.62
2023-03-05T05:41:00.240Z,5.62
2023-03-05T05:42:00.183Z,5.62
2023-03-05T05:43:00.157Z,5.62
2023-03-05T05:44:00.165Z,5.62
2023-03-05T05:45:00.158Z,5.62
2023-03-05T05:46:00.280Z,5.62
2023-03-05T05:47:00.139Z,11.25
2023-03-05T05:48:00.133Z,11.25
2023-03-05T05:49:00.119Z,11.25
2023-03-05T05:50:00.104Z,11.25
2023-03-05T05:51:00.140Z,11.25
2023-03-05T05:52:00.068Z,16.88
2023-03-05T05:53:00.082Z,16.88
2023-03-05T05:54:00.048Z,16.88
2023-03-05T05:55:00.052Z,16.88
2023-03-05T05:56:00.033Z,22.50
2023-03-05T05:57:00.004Z,22.50
2023-03-05T05:58:00.116Z,22.50
2023-03-05T05:58:59.989Z,22.50
2023-03-05T05:59:59.990Z,28.12
2023-03-05T06:00:59.973Z,28.12
2023-03-05T06:02:00.213Z,28.12
2023-03-05T06:02:59.956Z,28.12
2023-03-05T06:03:59.926Z,28.12
2023-03-05T06:04:59.933Z,33.75
2023-03-05T06:05:59.905Z,33.75
2023-03-05T06:06:59.893Z,33.75
2023-03-05T06:07:59.884Z,33.75
2023-03-05T06:08:59.889Z,33.75
2023-03-05T06:09:59.864Z,39.38
2023-03-05T06:10:59.852Z,45.00
2023-03-05T06:11:59.840Z,45.00
2023-03-05T06:12:59.826Z,45.00
2023-03-05T06:13:59.833Z,50.62
2023-03-05T06:14:59.810Z,56.25
2023-03-05T06:15:59.813Z,56.25
2023-03-05T06:16:59.784Z,56.25
2023-03-05T06:17:59.795Z,56.25
2023-03-05T06:18:59.778Z,61.88
2023-03-05T06:19:59.753Z,61.88
2023-03-05T06:21:07.326Z,61.88
2023-03-05T06:21:59.733Z,61.88
2023-03-05T06:22:59.725Z,67.50
2023-03-05T06:23:59.742Z,67.50
2023-03-05T06:24:59.695Z,73.12
2023-03-05T06:25:59.691Z,73.12
2023-03-05T06:27:00.322Z,73.12
2023-03-05T06:27:59.680Z,73.12
2023-03-05T06:28:59.656Z,73.12
2023-03-05T06:29:59.642Z,78.75
2023-03-05T06:30:59.870Z,90.00
2023-03-05T06:31:59.677Z,101.25
2023-03-05T06:32:59.639Z,101.25
2023-03-05T06:33:59.618Z,101.25
2023-03-05T06:34:59.592Z,106.88
2023-03-05T06:35:59.602Z,112.50
2023-03-05T06:36:59.574Z,112.50
2023-03-05T06:37:59.571Z,106.88
2023-03-05T06:38:59.546Z,112.50
2023-03-05T06:39:59.553Z,112.50
2023-03-05T06:40:59.525Z,129.38
2023-03-05T06:41:59.514Z,140.62
2023-03-05T06:42:59.506Z,157.50
2023-03-05T06:43:59.490Z,185.62
2023-03-05T06:44:59.494Z,208.12
2023-03-05T06:45:59.496Z,202.50
2023-03-05T06:46:59.459Z,208.12
2023-03-05T06:47:59.462Z,213.75
2023-03-05T06:48:59.473Z,196.88
2023-03-05T06:49:59.518Z,163.12
2023-03-05T06:50:59.426Z,163.12
2023-03-05T06:51:59.406Z,157.50
2023-03-05T06:52:59.389Z,135.00
2023-03-05T06:53:59.382Z,129.38
2023-03-05T06:54:59.853Z,135.00
2023-03-05T06:55:59.362Z,135.00
2023-03-05T06:56:59.397Z,129.38
2023-03-05T06:57:59.345Z,129.38
2023-03-05T06:58:59.323Z,118.12
2023-03-05T06:59:59.332Z,118.12
2023-03-05T07:00:59.312Z,118.12
2023-03-05T07:01:59.293Z,112.50
2023-03-05T07:02:59.280Z,112.50
2023-03-05T07:03:59.313Z,118.12
2023-03-05T07:04:59.301Z,118.12
2023-03-05T07:05:59.250Z,118.12
2023-03-05T07:06:59.240Z,129.38
2023-03-05T07:07:59.226Z,146.25
2023-03-05T07:08:59.224Z,163.12
2023-03-05T07:09:59.223Z,163.12
2023-03-05T07:10:59.193Z,146.25
2023-03-05T07:11:59.191Z,157.50
2023-03-05T07:12:59.187Z,180.00
2023-03-05T07:13:59.288Z,202.50
2023-03-05T07:14:59.163Z,236.25
2023-03-05T07:15:59.252Z,253.12
2023-03-05T07:16:59.133Z,270.00
2023-03-05T07:17:59.139Z,258.75
2023-03-05T07:18:59.107Z,230.62
2023-03-05T07:19:59.131Z,213.75
2023-03-05T07:20:59.833Z,196.88
2023-03-05T07:21:59.086Z,180.00
2023-03-05T07:22:59.281Z,151.88
2023-03-05T07:23:59.053Z,151.88
2023-03-05T07:24:59.040Z,157.50
2023-03-05T07:25:59.034Z,163.12
2023-03-05T07:26:59.017Z,174.38
2023-03-05T07:27:59.026Z,174.38
2023-03-05T07:28:58.999Z,180.00
2023-03-05T07:29:59.158Z,180.00
2023-03-05T07:30:59.055Z,174.38
2023-03-05T07:31:59.039Z,157.50
2023-03-05T07:32:58.970Z,157.50
2023-03-05T07:33:58.945Z,135.00
2023-03-05T07:34:58.930Z,146.25
2023-03-05T07:35:58.989Z,157.50
2023-03-05T07:36:58.922Z,151.88
2023-03-05T07:37:58.901Z,140.62
2023-03-05T07:38:58.893Z,140.62
2023-03-05T07:39:58.878Z,140.62
2023-03-05T07:40:58.878Z,151.88
2023-03-05T07:41:58.860Z,157.50
2023-03-05T07:42:58.863Z,157.50
2023-03-05T07:43:58.836Z,163.12
2023-03-05T07:44:58.825Z,174.38
2023-03-05T07:45:58.839Z,180.00
2023-03-05T07:46:58.800Z,185.62
2023-03-05T07:47:58.803Z,191.25
2023-03-05T07:48:58.783Z,196.88
2023-03-05T07:49:58.772Z,196.88
2023-03-05T07:50:58.754Z,202.50
2023-03-05T07:51:58.766Z,208.12
2023-03-05T07:52:58.763Z,219.38
2023-03-05T07:53:58.726Z,230.62
2023-03-05T07:54:58.720Z,241.88
2023-03-05T07:55:58.703Z,270.00
2023-03-05T07:56:58.695Z,281.25
2023-03-05T07:57:58.689Z,286.88
2023-03-05T07:58:58.680Z,298.12
2023-03-05T07:59:58.658Z,315.00
2023-03-05T08:00:58.694Z,326.25
2023-03-05T08:01:58.637Z,331.88
2023-03-05T08:02:58.638Z,326.25
2023-03-05T08:03:58.654Z,309.38
2023-03-05T08:04:58.621Z,309.38
2023-03-05T08:05:58.589Z,303.75
2023-03-05T08:06:58.607Z,309.38
2023-03-05T08:07:58.586Z,320.62
2023-03-05T08:08:58.589Z,303.75
2023-03-05T08:09:58.547Z,331.88
2023-03-05T08:10:58.547Z,309.38
2023-03-05T08:11:58.526Z,270.00
2023-03-05T08:12:58.512Z,281.25
2023-03-05T08:13:58.501Z,303.75
2023-03-05T08:14:58.503Z,331.88
2023-03-05T08:15:58.541Z,343.12
2023-03-05T08:16:58.493Z,326.25
2023-03-05T08:17:58.473Z,309.38
2023-03-05T08:18:58.462Z,320.62
2023-03-05T08:19:59.343Z,331.88
2023-03-05T08:20:58.448Z,337.50
2023-03-05T08:21:58.427Z,365.62
2023-03-05T08:22:58.403Z,399.38
2023-03-05T08:23:58.417Z,427.50
2023-03-05T08:24:58.450Z,450.00
2023-03-05T08:25:58.386Z,455.62
2023-03-05T08:26:58.365Z,483.75
2023-03-05T08:27:58.361Z,523.12
2023-03-05T08:28:58.335Z,793.12
2023-03-05T08:29:58.554Z,849.38
2023-03-05T08:30:58.369Z,1445.62
2023-03-05T08:31:58.388Z,776.25
2023-03-05T08:32:58.438Z,866.25
2023-03-05T08:33:58.297Z,1080.00
2023-03-05T08:34:58.279Z,720.00
2023-03-05T08:35:58.302Z,883.12
2023-03-05T08:36:58.262Z,849.38
2023-03-05T08:37:58.253Z,770.62
2023-03-05T08:38:58.227Z,1040.62
2023-03-05T08:39:58.232Z,708.75
2023-03-05T08:40:58.216Z,624.38
2023-03-05T08:41:58.206Z,613.12
2023-03-05T08:42:58.185Z,534.38
2023-03-05T08:43:58.209Z,466.88
2023-03-05T08:44:58.169Z,410.62
2023-03-05T08:45:58.153Z,376.88
2023-03-05T08:46:58.216Z,337.50
2023-03-05T08:47:58.123Z,320.62
2023-03-05T08:48:58.872Z,337.50
2023-03-05T08:49:58.123Z,416.25
2023-03-05T08:50:58.177Z,331.88
2023-03-05T08:51:58.097Z,433.12
2023-03-05T08:52:58.102Z,382.50
2023-03-05T08:53:58.076Z,343.12
2023-03-05T08:54:58.066Z,326.25
2023-03-05T08:55:58.050Z,540.00
2023-03-05T08:56:58.049Z,635.62
2023-03-05T08:57:58.283Z,590.62
2023-03-05T08:58:58.016Z,478.12
2023-03-05T08:59:58.000Z,421.88
2023-03-05T09:00:57.982Z,427.50
2023-03-05T09:01:58.175Z,483.75
2023-03-05T09:02:58.070Z,523.12
2023-03-05T09:03:57.949Z,421.88
2023-03-05T09:04:57.934Z,382.50
2023-03-05T09:05:57.922Z,438.75
2023-03-05T09:06:57.930Z,489.38
2023-03-05T09:07:57.899Z,517.50
2023-03-05T09:08:57.894Z,551.25
2023-03-05T09:09:57.911Z,511.88
2023-03-05T09:10:57.866Z,545.62
2023-03-05T09:11:57.894Z,675.00
2023-03-05T09:12:57.847Z,1046.25
2023-03-05T09:13:57.828Z,1271.25
2023-03-05T09:14:57.834Z,556.88
2023-03-05T09:15:57.907Z,691.88
2023-03-05T09:16:57.810Z,669.38
2023-03-05T09:17:57.792Z,894.38
2023-03-05T09:18:57.782Z,663.75
2023-03-05T09:19:57.767Z,568.12
2023-03-05T09:20:57.779Z,573.75
2023-03-05T09:21:57.746Z,618.75
2023-03-05T09:22:57.731Z,641.25
2023-03-05T09:23:57.723Z,703.12
2023-03-05T09:24:57.718Z,753.75
2023-03-05T09:25:57.722Z,900.00
2023-03-05T09:26:57.692Z,736.88
2023-03-05T09:27:57.694Z,714.38
2023-03-05T09:28:57.671Z,731.25
2023-03-05T09:29:57.656Z,703.12
2023-03-05T09:30:57.677Z,450.00
2023-03-05T09:31:57.771Z,309.38
2023-03-05T09:32:57.625Z,247.50
2023-03-05T09:33:57.637Z,219.38
2023-03-05T09:34:57.601Z,213.75
2023-03-05T09:35:57.848Z,191.25
2023-03-05T09:36:57.578Z,196.88
2023-03-05T09:37:57.565Z,196.88
2023-03-05T09:38:57.579Z,185.62
2023-03-05T09:39:57.539Z,168.75
2023-03-05T09:40:57.531Z,151.88
2023-03-05T09:41:57.522Z,157.50
2023-03-05T09:42:57.512Z,163.12
2023-03-05T09:43:57.513Z,180.00
2023-03-05T09:44:57.502Z,196.88
2023-03-05T09:45:57.544Z,219.38
2023-03-05T09:46:57.493Z,208.12
2023-03-05T09:47:57.472Z,180.00
2023-03-05T09:48:57.459Z,151.88
2023-03-05T09:49:57.437Z,140.62
2023-03-05T09:50:57.422Z,135.00
2023-03-05T09:51:57.422Z,118.12
2023-03-05T09:52:57.417Z,123.75
2023-03-05T09:53:57.433Z,135.00
2023-03-05T09:54:57.532Z,157.50
2023-03-05T09:55:57.364Z,163.12
2023-03-05T09:56:57.379Z,157.50
2023-03-05T09:57:57.346Z,202.50
2023-03-05T09:58:57.333Z,275.62
2023-03-05T09:59:57.337Z,326.25
2023-03-05T10:00:57.322Z,270.00
2023-03-05T10:01:57.333Z,292.50
2023-03-05T10:02:57.319Z,326.25
2023-03-05T10:03:57.352Z,343.12
2023-03-05T10:04:57.271Z,371.25
2023-03-05T10:05:57.256Z,388.12
2023-03-05T10:06:57.258Z,337.50
2023-03-05T10:07:57.250Z,393.75
2023-03-05T10:08:57.234Z,523.12
2023-03-05T10:09:57.220Z,478.12
2023-03-05T10:10:57.203Z,399.38
2023-03-05T10:11:57.368Z,326.25
2023-03-05T10:12:57.201Z,292.50
2023-03-05T10:13:57.253Z,270.00
2023-03-05T10:14:57.158Z,241.88
2023-03-05T10:15:57.164Z,236.25
2023-03-05T10:16:57.236Z,230.62
2023-03-05T10:17:57.140Z,253.12
2023-03-05T10:18:57.140Z,258.75
2023-03-05T10:19:57.105Z,320.62
2023-03-05T10:20:57.099Z,315.00
2023-03-05T10:21:57.088Z,309.38
2023-03-05T10:22:57.079Z,337.50
2023-03-05T10:23:57.165Z,360.00
2023-03-05T10:24:57.051Z,337.50
2023-03-05T10:25:57.067Z,354.38
2023-03-05T10:26:57.056Z,371.25
2023-03-05T10:27:57.018Z,315.00
2023-03-05T10:28:57.010Z,258.75
2023-03-05T10:29:57.005Z,241.88
2023-03-05T10:30:56.980Z,247.50
2023-03-05T10:31:57.096Z,275.62
2023-03-05T10:32:56.963Z,258.75
2023-03-05T10:33:56.945Z,230.62
2023-03-05T10:34:56.965Z,208.12
2023-03-05T10:35:56.965Z,196.88
2023-03-05T10:36:58.325Z,191.25
2023-03-05T10:37:56.902Z,180.00
2023-03-05T10:38:56.919Z,168.75
2023-03-05T10:39:57.414Z,151.88
2023-03-05T10:40:56.886Z,135.00
2023-03-05T10:41:56.861Z,135.00
2023-03-05T10:42:56.851Z,135.00
2023-03-05T10:43:56.837Z,140.62
2023-03-05T10:44:56.845Z,163.12
2023-03-05T10:45:56.855Z,168.75
2023-03-05T10:46:57.036Z,151.88
2023-03-05T10:47:56.816Z,174.38
2023-03-05T10:48:56.784Z,208.12
2023-03-05T10:49:56.773Z,225.00
2023-03-05T10:50:56.788Z,225.00
2023-03-05T10:51:56.747Z,236.25
2023-03-05T10:52:56.744Z,281.25
2023-03-05T10:53:56.742Z,337.50
2023-03-05T10:54:56.716Z,765.00
2023-03-05T10:55:56.729Z,388.12
2023-03-05T10:56:56.699Z,320.62
2023-03-05T10:57:56.688Z,286.88
2023-03-05T10:58:56.673Z,270.00
2023-03-05T10:59:56.665Z,241.88
2023-03-05T11:00:56.769Z,225.00
2023-03-05T11:01:56.640Z,213.75
2023-03-05T11:02:56.637Z,230.62
2023-03-05T11:03:56.645Z,236.25
2023-03-05T11:04:56.633Z,275.62
2023-03-05T11:05:56.621Z,275.62
2023-03-05T11:06:56.581Z,292.50
2023-03-05T11:07:56.597Z,275.62
2023-03-05T11:08:56.559Z,241.88
2023-03-05T11:09:56.546Z,236.25
2023-03-05T11:10:56.534Z,225.00
2023-03-05T11:11:56.543Z,208.12
2023-03-05T11:12:56.515Z,208.12
2023-03-05T11:13:56.505Z,219.38
2023-03-05T11:14:56.495Z,225.00
2023-03-05T11:15:56.959Z,219.38
2023-03-05T11:16:56.534Z,225.00
2023-03-05T11:17:56.457Z,219.38
2023-03-05T11:18:56.457Z,219.38
2023-03-05T11:19:56.459Z,208.12
2023-03-05T11:20:56.424Z,208.12
2023-03-05T11:21:57.957Z,196.88
2023-03-05T11:22:56.402Z,185.62
2023-03-05T11:23:56.391Z,185.62
2023-03-05T11:24:56.388Z,213.75
2023-03-05T11:25:56.369Z,275.62
2023-03-05T11:26:56.421Z,354.38
2023-03-05T11:27:56.368Z,376.88
2023-03-05T11:28:56.365Z,348.75
2023-03-05T11:29:56.328Z,331.88
2023-03-05T11:30:56.349Z,315.00
2023-03-05T11:31:56.300Z,298.12
2023-03-05T11:32:56.305Z,281.25
2023-03-05T11:33:56.897Z,264.38
2023-03-05T11:34:56.275Z,258.75
2023-03-05T11:35:56.313Z,303.75
2023-03-05T11:36:56.286Z,382.50
2023-03-05T11:37:56.241Z,382.50
2023-03-05T11:38:56.226Z,371.25
2023-03-05T11:39:56.214Z,427.50
2023-03-05T11:40:56.316Z,410.62
2023-03-05T11:41:56.184Z,376.88
2023-03-05T11:42:56.224Z,416.25
2023-03-05T11:43:56.170Z,421.88
2023-03-05T11:44:56.180Z,399.38
2023-03-05T11:45:56.174Z,416.25
2023-03-05T11:46:56.138Z,427.50
2023-03-05T11:47:56.140Z,731.25
2023-03-05T11:48:56.122Z,517.50
2023-03-05T11:49:56.104Z,489.38
2023-03-05T11:50:56.096Z,461.25
2023-03-05T11:51:56.143Z,461.25
2023-03-05T11:52:56.077Z,472.50
2023-03-05T11:53:56.065Z,455.62
2023-03-05T11:54:56.053Z,393.75
2023-03-05T11:55:56.044Z,360.00
2023-03-05T11:56:56.050Z,416.25
2023-03-05T11:57:56.019Z,534.38
2023-03-05T11:58:56.005Z,568.12
2023-03-05T11:59:55.994Z,579.38
2023-03-05T12:00:56.003Z,444.38
2023-03-05T12:01:55.992Z,371.25
2023-03-05T12:02:56.005Z,326.25
2023-03-05T12:03:56.056Z,286.88
2023-03-05T12:04:55.969Z,241.88
2023-03-05T12:05:55.962Z,208.12
2023-03-05T12:06:55.945Z,196.88
2023-03-05T12:07:55.933Z,180.00
2023-03-05T12:08:55.915Z,174.38
2023-03-05T12:09:55.890Z,180.00
2023-03-05T12:10:55.910Z,168.75
2023-03-05T12:11:55.882Z,163.12
2023-03-05T12:12:55.876Z,129.38
2023-03-05T12:13:55.848Z,112.50
2023-03-05T12:14:55.838Z,118.12
2023-03-05T12:15:55.895Z,174.38
2023-03-05T12:16:55.828Z,241.88
2023-03-05T12:17:55.812Z,320.62
2023-03-05T12:18:55.798Z,455.62
2023-03-05T12:19:55.797Z,781.88
2023-03-05T12:20:55.775Z,573.75
2023-03-05T12:22:04.961Z,556.88
2023-03-05T12:22:55.754Z,511.88
2023-03-05T12:23:55.758Z,500.62
2023-03-05T12:24:55.734Z,472.50
2023-03-05T12:25:55.717Z,540.00
2023-03-05T12:26:55.722Z,511.88
2023-03-05T12:27:55.723Z,495.00
2023-03-05T12:28:55.710Z,461.25
2023-03-05T12:29:55.677Z,455.62
2023-03-05T12:30:55.694Z,455.62
2023-03-05T12:31:55.654Z,478.12
2023-03-05T12:32:55.647Z,421.88
2023-03-05T12:33:55.630Z,337.50
2023-03-05T12:34:55.642Z,275.62
2023-03-05T12:35:55.630Z,298.12
2023-03-05T12:36:55.646Z,376.88
2023-03-05T12:37:55.583Z,528.75
2023-03-05T12:38:55.579Z,1035.00
2023-03-05T12:39:55.578Z,1361.25
2023-03-05T12:40:55.581Z,821.25
2023-03-05T12:41:55.561Z,1288.12
2023-03-05T12:42:55.529Z,472.50
2023-03-05T12:43:55.518Z,371.25
2023-03-05T12:44:55.512Z,343.12
2023-03-05T12:45:55.511Z,354.38
2023-03-05T12:46:55.551Z,360.00
2023-03-05T12:47:55.470Z,343.12
2023-03-05T12:48:55.601Z,320.62
2023-03-05T12:49:55.547Z,315.00
2023-03-05T12:50:55.508Z,298.12